Terminal Aerodrome Forecast
Issued by NWS Newport/Morehead City, NC

Home | Current Version | Previous Version | Text Only | Print | Product List | Glossary Off
Versions: 1 2 3 4 5 6 7 8 9 10 11 12

000
FTUS42 KMHX 291700
TAFEWN
TAF
KEWN 291720Z 2918/3018 05007KT P6SM SCT050
     FM300800 VRB03KT 4SM BR SKC
     FM301200 04005KT P6SM SKC=

USA.gov is the U.S. government's official web portal to all federal, state and local government web resources and services.